Terminal Aerodrome Forecast
Issued by NWS

Home | Current Version | Previous Version | Text Only | Print | Product List | Glossary On
Versions: 1 2 3 4 5 6 7 8 9 10 11 12 13 14 15 16 17
000
FTUS41 KPBZ 281810 AAA
TAFLBE
TAF AMD
KLBE 281810Z 2818/2918 13010G18KT P6SM SCT035 BKN100
     FM290400 12009G17KT P6SM VCSH BKN035
     FM290700 10008KT P6SM -SHRA OVC020
     FM291100 08005KT P6SM VCSH BKN025=

USA.gov is the U.S. government's official web portal to all federal, state and local government web resources and services.